Time;durP1;ratioP1;P1;durP2;ratioP2;P2;SDS_P1;SDS_P2;PMS_P1;PMS_P2;Temp;Humidity;BMP_temperature;BMP_pressure;BME280_temperature;BME280_humidity;BME280_pressure;Samples;Min_cycle;Max_cycle;Signal;HPM_P1;HPM_P2
2021/05/28 00:01:20;;;;;;;5.10;2.70;;;13.00;86.00;;;;;;3572822;40;20053;-69
2021/05/28 00:03:46;;;;;;;4.43;2.88;;;13.00;86.00;;;;;;3574504;40;20025;-68
2021/05/28 00:06:12;;;;;;;4.32;2.80;;;13.10;86.20;;;;;;3576302;40;20033;-68
2021/05/28 00:08:38;;;;;;;3.38;3.00;;;13.10;86.20;;;;;;3578371;40;20714;-68
2021/05/28 00:11:04;;;;;;;6.03;3.25;;;13.20;85.80;;;;;;3579032;40;20033;-68
2021/05/28 00:13:30;;;;;;;3.53;3.03;;;13.20;85.70;;;;;;3570048;40;20036;-68
2021/05/28 00:15:56;;;;;;;3.60;2.90;;;13.20;85.70;;;;;;3571965;40;20064;-69
2021/05/28 00:18:22;;;;;;;3.42;3.10;;;13.20;85.50;;;;;;3575478;40;20025;-68
2021/05/28 00:20:48;;;;;;;3.53;3.08;;;13.20;85.60;;;;;;3578310;40;20306;-68
2021/05/28 00:23:13;;;;;;;3.90;2.95;;;13.10;85.40;;;;;;3579438;40;20681;-69
2021/05/28 00:25:39;;;;;;;4.30;2.88;;;13.10;85.50;;;;;;3580248;40;20033;-68
2021/05/28 00:28:05;;;;;;;4.07;2.83;;;13.00;85.60;;;;;;3577474;40;20640;-69
2021/05/28 00:30:31;;;;;;;3.47;3.17;;;13.00;86.00;;;;;;3575620;40;20627;-68
2021/05/28 00:32:56;;;;;;;4.63;3.25;;;13.00;85.90;;;;;;3573855;40;20814;-67
2021/05/28 00:35:22;;;;;;;6.35;3.70;;;13.00;86.60;;;;;;3572811;40;20044;-69
2021/05/28 00:37:48;;;;;;;3.45;3.15;;;13.00;86.00;;;;;;3568997;40;20026;-68
2021/05/28 00:40:14;;;;;;;3.92;3.25;;;13.00;85.80;;;;;;3570826;40;20119;-69
2021/05/28 00:42:40;;;;;;;3.60;3.30;;;13.00;85.80;;;;;;3573537;40;20024;-68
2021/05/28 00:45:07;;;;;;;5.13;3.50;;;13.00;85.90;;;;;;3574678;40;20036;-68
2021/05/28 00:47:33;;;;;;;4.63;3.47;;;13.10;85.80;;;;;;3576600;40;20075;-68
2021/05/28 00:49:59;;;;;;;5.10;3.67;;;13.10;85.60;;;;;;3568753;40;20072;-69
2021/05/28 00:52:25;;;;;;;5.32;3.70;;;13.10;85.70;;;;;;3579137;40;20052;-68
2021/05/28 00:54:51;;;;;;;4.18;3.70;;;13.10;85.60;;;;;;3570511;40;20044;-68
2021/05/28 00:57:19;;;;;;;6.05;3.20;;;13.10;85.80;;;;;;3573596;40;20029;-69
2021/05/28 00:59:48;;;;;;;3.65;3.20;;;13.20;85.80;;;;;;3575571;40;20036;-68
2021/05/28 01:02:13;;;;;;;4.47;3.10;;;13.20;85.70;;;;;;3577706;40;20121;-69
2021/05/28 01:04:39;;;;;;;7.80;3.38;;;13.20;85.50;;;;;;3579367;40;20422;-69
2021/05/28 01:07:05;;;;;;;3.83;3.35;;;13.20;85.50;;;;;;3578092;40;20040;-69
2021/05/28 01:09:31;;;;;;;5.68;3.70;;;13.20;85.70;;;;;;3573508;40;20036;-68
2021/05/28 01:11:56;;;;;;;4.88;3.40;;;13.20;85.50;;;;;;3575415;40;20444;-69
2021/05/28 01:14:22;;;;;;;4.18;3.25;;;13.20;85.50;;;;;;3576721;40;20032;-69
2021/05/28 01:16:48;;;;;;;3.63;3.05;;;13.30;85.10;;;;;;3568813;40;20043;-68
2021/05/28 01:19:14;;;;;;;4.63;3.00;;;13.30;85.10;;;;;;3570596;40;20724;-68
2021/05/28 01:21:42;;;;;;;3.08;2.70;;;13.20;84.90;;;;;;3572312;40;20028;-68
2021/05/28 01:24:09;;;;;;;6.03;3.60;;;13.20;85.60;;;;;;3574721;40;20055;-69
2021/05/28 01:26:34;;;;;;;3.83;2.95;;;13.20;84.80;;;;;;3576885;40;20033;-68
2021/05/28 01:29:00;;;;;;;3.30;2.75;;;13.20;84.80;;;;;;3577423;40;20121;-68
2021/05/28 01:31:26;;;;;;;3.30;2.97;;;13.20;84.50;;;;;;3579184;39;20037;-69
2021/05/28 01:33:52;;;;;;;5.18;2.25;;;13.20;84.20;;;;;;3578708;40;20037;-68
2021/05/28 01:36:17;;;;;;;3.83;2.60;;;13.20;83.80;;;;;;3576032;40;20307;-68
2021/05/28 01:38:43;;;;;;;4.53;2.35;;;13.20;83.60;;;;;;3575441;40;20072;-68
2021/05/28 01:41:09;;;;;;;2.88;2.50;;;13.20;83.40;;;;;;3571213;40;20260;-68
2021/05/28 01:43:35;;;;;;;3.42;2.05;;;13.20;83.10;;;;;;3571268;40;20123;-68
2021/05/28 01:46:01;;;;;;;2.05;1.85;;;13.20;82.80;;;;;;3570828;40;20032;-68
2021/05/28 01:48:27;;;;;;;2.10;1.92;;;13.20;82.90;;;;;;3572697;40;20044;-68
2021/05/28 01:50:53;;;;;;;1.98;1.60;;;13.20;82.80;;;;;;3575074;40;20029;-68
2021/05/28 01:53:26;;;;;;;2.45;2.00;;;13.20;82.90;;;;;;3575500;40;20526;-70
2021/05/28 01:55:53;;;;;;;3.78;2.13;;;13.20;82.70;;;;;;3570812;40;20062;-69
2021/05/28 01:58:21;;;;;;;3.63;2.10;;;13.10;82.50;;;;;;3570728;40;20033;-68
2021/05/28 02:00:48;;;;;;;2.22;1.80;;;13.10;82.50;;;;;;3576664;40;20028;-69
2021/05/28 02:03:15;;;;;;;1.95;1.75;;;13.10;82.30;;;;;;3576117;40;20044;-69
2021/05/28 02:05:43;;;;;;;2.40;1.63;;;13.10;82.20;;;;;;3568932;40;20051;-68
2021/05/28 02:08:09;;;;;;;1.65;1.55;;;13.10;82.10;;;;;;3577504;40;20217;-68
2021/05/28 02:10:35;;;;;;;2.72;1.67;;;13.00;81.90;;;;;;3578073;40;20024;-68
2021/05/28 02:13:00;;;;;;;2.03;1.70;;;13.00;81.70;;;;;;3573600;40;20858;-68
2021/05/28 02:15:27;;;;;;;1.52;1.42;;;13.00;81.70;;;;;;3572424;40;20036;-68
2021/05/28 02:17:53;;;;;;;3.55;1.92;;;13.00;81.50;;;;;;3574785;40;20041;-68
2021/05/28 02:20:20;;;;;;;2.53;1.40;;;12.90;81.00;;;;;;3572640;40;20029;-69
2021/05/28 02:22:46;;;;;;;1.30;1.20;;;12.90;81.90;;;;;;3571399;40;20037;-69
2021/05/28 02:25:13;;;;;;;1.40;1.05;;;12.90;81.40;;;;;;3575581;40;20635;-68
2021/05/28 02:27:39;;;;;;;1.50;1.15;;;12.80;81.60;;;;;;3570481;40;20064;-69
2021/05/28 02:30:06;;;;;;;3.03;1.13;;;12.70;81.40;;;;;;3572198;40;20025;-69
2021/05/28 02:32:32;;;;;;;1.65;1.25;;;12.70;81.80;;;;;;3573596;40;20036;-68
2021/05/28 02:34:58;;;;;;;1.45;1.35;;;12.60;82.10;;;;;;3573503;40;20036;-69
2021/05/28 02:37:24;;;;;;;3.60;1.60;;;12.60;82.40;;;;;;3571965;40;20121;-68
2021/05/28 02:39:50;;;;;;;2.67;1.40;;;12.50;82.50;;;;;;3577540;40;20028;-68
2021/05/28 02:42:16;;;;;;;3.00;1.48;;;12.50;82.70;;;;;;3571230;40;20049;-69
2021/05/28 02:44:42;;;;;;;2.03;1.75;;;12.50;82.70;;;;;;3572686;40;20499;-68
2021/05/28 02:47:08;;;;;;;2.65;1.52;;;12.50;82.60;;;;;;3571892;40;20126;-68
2021/05/28 02:49:35;;;;;;;3.90;1.40;;;12.50;82.90;;;;;;3574559;40;20021;-68
2021/05/28 02:52:01;;;;;;;2.47;1.30;;;12.50;82.80;;;;;;3573862;40;20040;-68
2021/05/28 02:54:28;;;;;;;3.58;1.40;;;12.50;82.80;;;;;;3575389;40;20017;-68
2021/05/28 02:56:54;;;;;;;2.42;1.40;;;12.40;82.80;;;;;;3576546;40;20501;-68
2021/05/28 02:59:20;;;;;;;1.35;1.20;;;12.40;83.00;;;;;;3577812;40;20566;-68
2021/05/28 03:01:45;;;;;;;1.52;1.42;;;12.30;83.40;;;;;;3580418;40;20033;-68
2021/05/28 03:04:11;;;;;;;3.53;1.77;;;12.30;83.20;;;;;;3573536;40;20072;-68
2021/05/28 03:06:37;;;;;;;2.03;1.85;;;12.30;83.70;;;;;;3576052;40;20109;-68
2021/05/28 03:09:03;;;;;;;2.30;1.67;;;12.30;83.80;;;;;;3578537;39;20032;-68
2021/05/28 03:11:29;;;;;;;1.42;1.33;;;12.40;83.90;;;;;;3575952;40;20072;-68
2021/05/28 03:13:55;;;;;;;3.80;1.60;;;12.40;83.70;;;;;;3579606;40;20052;-68
2021/05/28 03:16:21;;;;;;;3.42;1.80;;;12.50;83.70;;;;;;3578934;40;20129;-67
2021/05/28 03:18:52;;;;;;;3.08;1.95;;;12.50;83.40;;;;;;3581798;40;20032;-68
2021/05/28 03:23:45;;;;;;;2.08;1.73;;;12.50;82.90;;;;;;3577734;40;20041;-68
2021/05/28 03:26:10;;;;;;;3.20;1.63;;;12.50;83.10;;;;;;3580036;40;20121;-68
2021/05/28 03:28:36;;;;;;;4.60;1.88;;;12.50;83.00;;;;;;3581562;40;20426;-68
2021/05/28 03:31:02;;;;;;;2.28;1.85;;;12.50;83.40;;;;;;3573894;40;20130;-68
2021/05/28 03:33:27;;;;;;;2.47;1.95;;;12.50;83.30;;;;;;3575491;40;20691;-69
2021/05/28 03:35:54;;;;;;;5.28;2.10;;;12.40;83.40;;;;;;3576195;40;20044;-68
2021/05/28 03:38:19;;;;;;;4.72;1.90;;;12.40;83.30;;;;;;3577447;40;20453;-68
2021/05/28 03:40:45;;;;;;;3.90;2.03;;;12.30;83.60;;;;;;3574679;40;20037;-68
2021/05/28 03:43:11;;;;;;;3.38;1.98;;;12.30;84.00;;;;;;3573629;40;20637;-68
2021/05/28 03:45:37;;;;;;;4.53;2.08;;;12.40;84.00;;;;;;3578915;40;20601;-68
2021/05/28 03:48:03;;;;;;;2.95;1.80;;;12.40;83.70;;;;;;3576622;40;20766;-68
2021/05/28 03:50:29;;;;;;;2.13;1.90;;;12.40;83.80;;;;;;3578006;40;20060;-68
2021/05/28 03:52:54;;;;;;;2.28;1.80;;;12.50;83.70;;;;;;3576840;40;20044;-68
2021/05/28 03:55:20;;;;;;;2.83;1.80;;;12.60;83.30;;;;;;3576297;40;20746;-68
2021/05/28 03:57:46;;;;;;;2.63;2.20;;;12.60;83.30;;;;;;3575034;40;20043;-68
2021/05/28 04:00:12;;;;;;;1.88;1.77;;;12.60;83.20;;;;;;3575628;40;20114;-69
2021/05/28 04:02:42;;;;;;;3.22;1.70;;;12.60;83.10;;;;;;3573672;40;20021;-68
2021/05/28 04:05:09;;;;;;;1.55;1.45;;;12.70;83.10;;;;;;3575904;40;20040;-67
2021/05/28 04:07:34;;;;;;;2.90;1.88;;;12.70;82.60;;;;;;3572846;40;20148;-67
2021/05/28 04:10:00;;;;;;;2.95;1.92;;;12.80;82.60;;;;;;3579813;40;20113;-67
2021/05/28 04:12:26;;;;;;;2.22;1.65;;;12.80;82.00;;;;;;3577184;40;20021;-67
2021/05/28 04:14:52;;;;;;;2.00;1.80;;;12.90;82.10;;;;;;3574264;40;20032;-67
2021/05/28 04:17:17;;;;;;;2.95;1.80;;;12.90;81.70;;;;;;3576503;40;20029;-67
2021/05/28 04:19:43;;;;;;;3.45;1.80;;;12.90;81.70;;;;;;3575918;40;20048;-67
2021/05/28 04:22:09;;;;;;;2.10;1.80;;;12.90;81.60;;;;;;3580091;40;20033;-67
2021/05/28 04:24:34;;;;;;;4.50;1.70;;;13.00;81.50;;;;;;3580551;40;20028;-67
2021/05/28 04:27:00;;;;;;;3.95;1.83;;;13.00;80.90;;;;;;3576979;40;20069;-67
2021/05/28 04:29:26;;;;;;;4.15;1.98;;;13.00;81.20;;;;;;3575873;40;20067;-67
2021/05/28 04:31:52;;;;;;;2.30;2.03;;;13.00;81.10;;;;;;3575058;40;20113;-67
2021/05/28 04:34:17;;;;;;;5.28;1.55;;;13.00;81.20;;;;;;3573207;40;20048;-67
2021/05/28 04:36:43;;;;;;;2.72;1.77;;;13.10;81.40;;;;;;3576916;40;20073;-67
2021/05/28 04:39:09;;;;;;;3.83;1.98;;;13.10;81.40;;;;;;3577230;40;20040;-67
2021/05/28 04:41:35;;;;;;;3.70;1.90;;;13.10;81.10;;;;;;3577348;40;20039;-67
2021/05/28 04:44:00;;;;;;;2.17;1.80;;;13.20;80.70;;;;;;3575121;40;20044;-67
2021/05/28 04:46:27;;;;;;;2.67;1.65;;;13.20;80.60;;;;;;3575317;40;20021;-68
2021/05/28 04:48:52;;;;;;;2.05;1.70;;;13.30;80.30;;;;;;3576244;40;20037;-67
2021/05/28 04:51:18;;;;;;;4.43;1.80;;;13.30;80.10;;;;;;3578192;40;20084;-67
2021/05/28 04:53:44;;;;;;;4.30;1.75;;;13.30;80.20;;;;;;3576500;40;20141;-67
2021/05/28 04:56:10;;;;;;;1.70;1.55;;;13.40;79.80;;;;;;3574634;40;20028;-67
2021/05/28 04:58:35;;;;;;;3.88;1.77;;;13.40;79.50;;;;;;3575083;40;20130;-67
2021/05/28 05:01:01;;;;;;;2.03;1.50;;;13.40;79.80;;;;;;3578303;39;20088;-67
2021/05/28 05:03:26;;;;;;;2.92;1.70;;;13.40;79.50;;;;;;3580669;40;20373;-68
2021/05/28 05:05:52;;;;;;;2.33;1.85;;;13.40;79.80;;;;;;3572526;40;20048;-68
2021/05/28 05:08:18;;;;;;;3.63;1.90;;;13.30;79.70;;;;;;3570798;40;20045;-68
2021/05/28 05:10:44;;;;;;;2.70;2.10;;;13.30;79.40;;;;;;3575270;40;20069;-67
2021/05/28 05:13:13;;;;;;;4.28;1.58;;;13.30;79.80;;;;;;3577056;40;20418;-67
2021/05/28 05:15:39;;;;;;;5.10;1.58;;;13.40;79.80;;;;;;3578442;40;20040;-67
2021/05/28 05:18:07;;;;;;;2.17;1.98;;;13.50;79.30;;;;;;3578050;40;20393;-66
2021/05/28 05:20:34;;;;;;;4.38;1.80;;;13.50;79.40;;;;;;3580477;40;20043;-68
2021/05/28 05:22:59;;;;;;;2.72;1.67;;;13.50;79.60;;;;;;3576074;40;20080;-67
2021/05/28 05:25:25;;;;;;;1.60;1.50;;;13.60;79.30;;;;;;3570397;40;20396;-67
2021/05/28 05:27:51;;;;;;;2.08;1.88;;;13.60;79.20;;;;;;3579292;40;20039;-67
2021/05/28 05:30:17;;;;;;;5.82;2.00;;;13.60;78.90;;;;;;3576915;40;20701;-68
2021/05/28 05:32:43;;;;;;;2.47;1.90;;;13.70;78.70;;;;;;3572746;40;20773;-67
2021/05/28 05:35:09;;;;;;;5.13;2.30;;;13.70;78.40;;;;;;3575016;40;20248;-68
2021/05/28 05:37:35;;;;;;;3.15;2.00;;;13.80;77.70;;;;;;3576502;40;20059;-67
2021/05/28 05:40:01;;;;;;;2.25;1.58;;;13.70;78.20;;;;;;3573897;40;20036;-68
2021/05/28 05:42:26;;;;;;;1.58;1.38;;;13.70;78.30;;;;;;3569460;40;20041;-70
2021/05/28 05:44:52;;;;;;;2.63;1.85;;;13.90;78.20;;;;;;3572662;40;20040;-67
2021/05/28 05:47:18;;;;;;;5.07;2.15;;;14.00;77.60;;;;;;3563931;40;20044;-67
2021/05/28 05:49:43;;;;;;;4.10;2.47;;;14.00;77.90;;;;;;3575360;40;20076;-68
2021/05/28 05:52:09;;;;;;;4.78;2.40;;;14.10;77.50;;;;;;3575133;40;20063;-65
2021/05/28 05:54:35;;;;;;;2.45;1.95;;;14.20;77.20;;;;;;3571810;40;20039;-63
2021/05/28 05:57:01;;;;;;;1.77;1.60;;;14.20;76.90;;;;;;3571146;40;20593;-63
2021/05/28 05:59:30;;;;;;;2.80;1.85;;;14.20;77.10;;;;;;3572225;40;20040;-65
2021/05/28 06:01:56;;;;;;;6.30;1.95;;;14.20;76.90;;;;;;3573389;40;20044;-68
2021/05/28 06:04:21;;;;;;;3.90;1.83;;;14.30;76.70;;;;;;3577313;40;20033;-69
2021/05/28 06:06:47;;;;;;;3.83;1.83;;;14.30;76.40;;;;;;3574899;40;20047;-69
2021/05/28 06:09:14;;;;;;;2.80;1.92;;;14.40;76.00;;;;;;3573370;40;20421;-69
2021/05/28 06:11:39;;;;;;;2.97;2.00;;;14.50;76.20;;;;;;3576641;40;20048;-69
2021/05/28 06:14:08;;;;;;;5.38;1.95;;;14.60;76.00;;;;;;3577299;40;20029;-70
2021/05/28 06:16:34;;;;;;;2.95;2.05;;;14.70;76.20;;;;;;3576009;40;20033;-67
2021/05/28 06:19:00;;;;;;;3.10;1.80;;;14.90;75.20;;;;;;3574695;40;20031;-65
2021/05/28 06:21:26;;;;;;;3.00;2.05;;;15.10;75.20;;;;;;3575690;40;20033;-67
2021/05/28 06:23:52;;;;;;;2.92;1.73;;;15.20;74.20;;;;;;3571102;40;20770;-65
2021/05/28 06:26:18;;;;;;;5.88;2.08;;;15.40;74.00;;;;;;3575851;40;20026;-64
2021/05/28 06:28:43;;;;;;;5.05;2.20;;;15.50;72.20;;;;;;3576488;40;20036;-68
2021/05/28 06:31:09;;;;;;;3.50;1.88;;;15.50;72.60;;;;;;3572997;40;20100;-66
2021/05/28 06:33:35;;;;;;;4.47;2.13;;;15.50;72.30;;;;;;3571387;40;20437;-66
2021/05/28 06:36:01;;;;;;;2.80;1.85;;;15.40;72.80;;;;;;3577177;40;20036;-66
2021/05/28 06:38:26;;;;;;;5.03;2.33;;;15.50;72.30;;;;;;3572189;40;20052;-66
2021/05/28 06:40:52;;;;;;;4.28;2.72;;;15.50;72.30;;;;;;3573215;40;20028;-67
2021/05/28 06:43:18;;;;;;;4.35;2.80;;;15.50;72.00;;;;;;3574615;40;20032;-66
2021/05/28 06:45:44;;;;;;;5.63;2.10;;;15.50;71.90;;;;;;3576440;40;20036;-66
2021/05/28 06:48:10;;;;;;;1.92;1.60;;;15.50;72.20;;;;;;3575997;40;20076;-66
2021/05/28 06:50:40;;;;;;;1.80;1.67;;;15.70;71.30;;;;;;3569759;40;20031;-67
2021/05/28 06:53:06;;;;;;;3.17;1.85;;;15.90;71.10;;;;;;3572683;40;20398;-66
2021/05/28 06:55:32;;;;;;;5.72;2.30;;;16.20;70.80;;;;;;3574615;40;20099;-68
2021/05/28 06:57:58;;;;;;;6.03;2.00;;;16.30;68.60;;;;;;3575159;40;20043;-67
2021/05/28 07:00:24;;;;;;;2.78;2.20;;;16.40;69.00;;;;;;3577890;40;20017;-67
2021/05/28 07:02:50;;;;;;;3.85;2.17;;;16.60;69.20;;;;;;3579409;39;20097;-66
2021/05/28 07:05:16;;;;;;;4.20;1.80;;;16.70;67.40;;;;;;3574269;40;20044;-67
2021/05/28 07:07:41;;;;;;;3.40;1.83;;;16.80;68.20;;;;;;3574416;40;20444;-70
2021/05/28 07:10:08;;;;;;;3.65;1.77;;;17.00;67.40;;;;;;3573867;40;20126;-67
2021/05/28 07:12:35;;;;;;;4.93;1.90;;;17.20;67.00;;;;;;3573095;40;20510;-66
2021/05/28 07:15:03;;;;;;;2.95;1.60;;;17.50;65.80;;;;;;3570767;40;20029;-67
2021/05/28 07:17:28;;;;;;;5.18;1.90;;;17.60;64.60;;;;;;3569738;40;20040;-66
2021/05/28 07:19:54;;;;;;;2.00;1.60;;;17.60;64.50;;;;;;3574278;40;20064;-67
2021/05/28 07:22:20;;;;;;;2.47;1.58;;;17.60;65.00;;;;;;3574073;40;20438;-66
2021/05/28 07:24:46;;;;;;;2.08;1.83;;;17.50;66.50;;;;;;3571528;40;20135;-67
2021/05/28 07:27:11;;;;;;;3.67;1.40;;;17.50;64.50;;;;;;3572525;40;20034;-67
2021/05/28 07:29:37;;;;;;;4.53;1.58;;;17.50;63.80;;;;;;3568336;40;20099;-67
2021/05/28 07:32:03;;;;;;;5.43;1.83;;;17.50;64.00;;;;;;3571835;40;20045;-67
2021/05/28 07:34:29;;;;;;;2.40;1.60;;;17.60;62.70;;;;;;3574403;40;20328;-66
2021/05/28 07:36:54;;;;;;;2.83;1.40;;;17.50;63.80;;;;;;3577050;40;20036;-69
2021/05/28 07:39:20;;;;;;;2.15;1.50;;;17.60;63.70;;;;;;3564741;40;20041;-70
2021/05/28 07:41:46;;;;;;;3.63;1.77;;;17.70;63.40;;;;;;3577626;40;20390;-70
2021/05/28 07:44:12;;;;;;;1.60;1.40;;;17.60;64.40;;;;;;3576519;40;20025;-70
2021/05/28 07:46:44;;;;;;;3.40;1.40;;;17.50;63.50;;;;;;3576535;40;20829;-67
2021/05/28 07:49:13;;;;;;;4.03;1.40;;;17.50;63.30;;;;;;3576063;40;20470;-66
2021/05/28 07:51:40;;;;;;;1.58;1.27;;;17.50;64.00;;;;;;3573747;40;20041;-65
2021/05/28 07:54:06;;;;;;;2.78;1.30;;;17.60;63.60;;;;;;3571198;40;20045;-65
2021/05/28 07:56:36;;;;;;;4.38;1.52;;;17.70;62.80;;;;;;3575194;40;20087;-65
2021/05/28 07:59:02;;;;;;;1.40;1.20;;;17.70;62.20;;;;;;3577101;40;20415;-65
2021/05/28 08:01:28;;;;;;;1.45;1.20;;;17.60;63.00;;;;;;3573634;40;20150;-64
2021/05/28 08:03:56;;;;;;;5.43;1.40;;;17.60;62.20;;;;;;3576317;40;20086;-66
2021/05/28 08:06:22;;;;;;;1.33;1.23;;;17.50;63.00;;;;;;3579080;40;20029;-65
2021/05/28 08:08:48;;;;;;;1.50;1.40;;;17.50;62.50;;;;;;3574418;40;20676;-66
2021/05/28 08:11:14;;;;;;;2.40;1.27;;;17.50;62.20;;;;;;3573225;40;20029;-66
2021/05/28 08:13:40;;;;;;;11.07;6.97;;;17.30;63.20;;;;;;3576628;40;20013;-65
2021/05/28 08:16:06;;;;;;;2.70;1.45;;;17.30;63.40;;;;;;3574615;40;20044;-66
2021/05/28 08:18:32;;;;;;;1.98;1.40;;;17.30;63.00;;;;;;3576618;40;20028;-66
2021/05/28 08:20:58;;;;;;;3.15;1.73;;;17.30;63.30;;;;;;3576053;40;20318;-66
2021/05/28 08:23:24;;;;;;;1.52;1.10;;;17.30;62.90;;;;;;3580092;40;20071;-66
2021/05/28 08:25:50;;;;;;;1.42;1.00;;;17.30;62.40;;;;;;3578254;40;20025;-67
2021/05/28 08:28:19;;;;;;;1.80;1.00;;;17.30;63.60;;;;;;3574859;40;20024;-67
2021/05/28 08:30:46;;;;;;;1.92;1.20;;;17.30;63.50;;;;;;3575608;40;20037;-70
2021/05/28 08:33:13;;;;;;;2.65;1.10;;;17.20;63.50;;;;;;3572848;40;20296;-69
2021/05/28 08:35:41;;;;;;;0.90;0.90;;;17.20;62.90;;;;;;3572371;40;20708;-71
2021/05/28 08:38:07;;;;;;;1.20;1.08;;;17.10;63.20;;;;;;3574377;40;20080;-72
2021/05/28 08:40:34;;;;;;;1.85;1.15;;;17.00;63.80;;;;;;3573106;40;20126;-70
2021/05/28 08:43:05;;;;;;;3.08;1.17;;;17.10;64.50;;;;;;3574790;40;20098;-71
2021/05/28 08:45:36;;;;;;;3.28;1.30;;;17.20;64.30;;;;;;3573267;40;20061;-71
2021/05/28 08:48:04;;;;;;;1.48;1.20;;;17.30;63.20;;;;;;3573654;40;20087;-70
2021/05/28 08:50:30;;;;;;;2.22;1.30;;;17.40;61.70;;;;;;3573152;40;20137;-70
2021/05/28 08:52:56;;;;;;;4.75;1.73;;;17.50;61.80;;;;;;3574117;40;20399;-72
2021/05/28 08:55:21;;;;;;;0.80;0.80;;;17.60;62.20;;;;;;3574796;40;20033;-72
2021/05/28 08:57:47;;;;;;;1.50;0.98;;;17.70;61.10;;;;;;3574901;40;20029;-71
2021/05/28 09:00:14;;;;;;;1.15;1.05;;;17.60;60.80;;;;;;3569971;40;20130;-74
2021/05/28 09:02:40;;;;;;;2.42;1.00;;;17.50;60.70;;;;;;3569991;40;20039;-75
2021/05/28 09:05:16;;;;;;;0.93;0.90;;;17.40;62.20;;;;;;3573279;40;20079;-69
2021/05/28 09:08:00;;;;;;;1.05;1.00;;;17.30;61.90;;;;;;3573028;40;20032;-65
2021/05/28 09:10:33;;;;;;;1.95;1.27;;;17.30;62.70;;;;;;3572387;40;20036;-70
2021/05/28 09:13:27;;;;;;;3.17;1.40;;;17.30;61.50;;;;;;3576162;40;20036;-70
2021/05/28 09:16:19;;;;;;;17.02;2.70;;;17.20;62.90;;;;;;3579425;40;20044;-70
2021/05/28 09:18:49;;;;;;;5.75;1.10;;;17.30;63.20;;;;;;3576391;40;20213;-70
2021/05/28 09:21:23;;;;;;;3.08;0.90;;;17.40;61.90;;;;;;3575376;40;20711;-69
2021/05/28 09:23:51;;;;;;;1.17;1.00;;;17.40;61.20;;;;;;3572063;40;20056;-70
2021/05/28 09:26:17;;;;;;;2.53;1.00;;;17.70;61.10;;;;;;3572471;40;20458;-70
2021/05/28 09:28:45;;;;;;;2.08;1.23;;;17.90;60.70;;;;;;3561571;40;20347;-70
2021/05/28 09:31:19;;;;;;;1.02;0.93;;;18.20;59.80;;;;;;3573266;40;20043;-70
2021/05/28 09:33:50;;;;;;;3.42;0.90;;;18.30;58.50;;;;;;3575770;40;20836;-69
2021/05/28 09:36:21;;;;;;;3.60;1.00;;;18.30;58.30;;;;;;3576020;40;20043;-69
2021/05/28 09:39:09;;;;;;;4.15;0.90;;;18.50;57.60;;;;;;3571486;40;20041;-69
2021/05/28 09:41:42;;;;;;;0.82;0.82;;;18.70;56.40;;;;;;3569405;40;20706;-69
2021/05/28 09:44:13;;;;;;;0.70;0.70;;;18.90;54.60;;;;;;3572431;40;20041;-70
2021/05/28 09:47:17;;;;;;;0.63;0.63;;;19.00;54.40;;;;;;3575005;40;20047;-70
2021/05/28 09:49:54;;;;;;;0.90;0.65;;;19.30;53.50;;;;;;3573290;40;20085;-69
2021/05/28 09:52:21;;;;;;;1.00;0.90;;;19.20;53.30;;;;;;3572552;40;20040;-70
2021/05/28 09:55:03;;;;;;;0.98;0.90;;;19.20;53.70;;;;;;3572372;40;20032;-68
2021/05/28 09:57:34;;;;;;;1.42;1.33;;;19.30;53.30;;;;;;3574749;40;20017;-68
2021/05/28 10:00:04;;;;;;;0.70;0.63;;;19.30;53.00;;;;;;3572154;40;20043;-68
2021/05/28 10:02:45;;;;;;;2.80;1.52;;;19.30;50.60;;;;;;3573998;40;20729;-68
2021/05/28 10:05:12;;;;;;;2.90;1.30;;;19.30;51.20;;;;;;3572565;40;20063;-69
2021/05/28 10:07:39;;;;;;;2.13;1.08;;;19.50;51.10;;;;;;3569040;40;20086;-70
2021/05/28 10:10:05;;;;;;;1.98;1.15;;;19.60;50.00;;;;;;3575648;40;20063;-69
2021/05/28 10:12:31;;;;;;;3.08;0.93;;;19.70;50.20;;;;;;3576623;40;20033;-70
2021/05/28 10:14:57;;;;;;;2.70;2.10;;;19.80;50.00;;;;;;3574968;40;20025;-68
2021/05/28 10:17:23;;;;;;;2.65;0.95;;;19.80;50.60;;;;;;3573872;40;20041;-69
2021/05/28 10:19:50;;;;;;;5.15;1.02;;;19.80;48.90;;;;;;3575920;40;20052;-69
2021/05/28 10:22:17;;;;;;;4.07;0.80;;;19.70;48.00;;;;;;3571371;40;20629;-68
2021/05/28 10:24:44;;;;;;;2.55;0.80;;;19.50;49.30;;;;;;3573651;40;20186;-66
2021/05/28 10:27:10;;;;;;;2.15;0.57;;;19.30;49.30;;;;;;3575112;40;20080;-68
2021/05/28 10:29:39;;;;;;;2.13;0.80;;;19.20;49.90;;;;;;3572989;40;20028;-66
2021/05/28 10:32:12;;;;;;;0.70;0.70;;;19.10;50.40;;;;;;3571207;40;20053;-69
2021/05/28 10:35:06;;;;;;;0.70;0.70;;;19.10;49.40;;;;;;3570828;40;20507;-69
2021/05/28 10:37:32;;;;;;;3.30;1.05;;;19.10;48.60;;;;;;3571311;40;20069;-69
2021/05/28 10:39:59;;;;;;;1.33;1.02;;;19.30;49.30;;;;;;3574730;40;20069;-69
2021/05/28 10:42:24;;;;;;;1.58;0.88;;;19.50;48.40;;;;;;3573578;40;20074;-69
2021/05/28 10:44:50;;;;;;;1.30;1.10;;;19.50;47.30;;;;;;3574020;40;20281;-70
2021/05/28 10:47:16;;;;;;;3.65;1.73;;;19.60;47.70;;;;;;3571538;40;20021;-69
2021/05/28 10:49:44;;;;;;;1.52;1.20;;;19.80;48.30;;;;;;3571654;40;20330;-69
2021/05/28 10:52:11;;;;;;;1.90;1.50;;;19.90;47.70;;;;;;3575533;40;20037;-66
2021/05/28 10:54:42;;;;;;;2.05;1.30;;;20.10;48.20;;;;;;3573953;40;20072;-69
2021/05/28 10:57:43;;;;;;;1.70;1.00;;;20.30;46.60;;;;;;3573646;40;20058;-69
2021/05/28 11:00:19;;;;;;;2.15;0.80;;;20.40;45.60;;;;;;3572397;40;20041;-67
2021/05/28 11:02:47;;;;;;;2.33;0.95;;;20.50;45.40;;;;;;3571483;40;20028;-65
2021/05/28 11:05:15;;;;;;;2.38;0.90;;;20.50;45.50;;;;;;3574796;40;20028;-69
2021/05/28 11:07:43;;;;;;;1.08;0.77;;;20.60;45.00;;;;;;3573515;40;20025;-69
2021/05/28 11:10:20;;;;;;;1.00;0.80;;;20.70;44.20;;;;;;3572891;40;20517;-69
2021/05/28 11:12:46;;;;;;;0.90;0.90;;;20.80;44.50;;;;;;3573657;40;20053;-65
2021/05/28 11:15:15;;;;;;;1.67;1.10;;;21.00;43.30;;;;;;3572559;40;20390;-67
2021/05/28 11:18:02;;;;;;;2.03;1.30;;;20.90;42.80;;;;;;3577669;40;20045;-68
2021/05/28 11:20:42;;;;;;;1.45;0.85;;;20.90;42.70;;;;;;3575964;40;20041;-68
2021/05/28 11:23:16;;;;;;;1.60;1.20;;;20.90;42.30;;;;;;3576602;40;20089;-68
2021/05/28 11:25:46;;;;;;;1.48;0.88;;;20.90;42.60;;;;;;3581040;40;20068;-68
2021/05/28 11:28:13;;;;;;;0.90;0.90;;;20.90;43.20;;;;;;3574397;40;20037;-67
2021/05/28 11:31:00;;;;;;;2.47;1.10;;;21.10;43.20;;;;;;3577590;40;20032;-63
2021/05/28 11:33:37;;;;;;;1.33;0.75;;;21.10;44.40;;;;;;3576172;40;20053;-68
2021/05/28 11:36:26;;;;;;;2.95;1.23;;;21.10;43.40;;;;;;3574171;40;20034;-66
2021/05/28 11:39:00;;;;;;;1.17;1.00;;;21.00;43.40;;;;;;3573481;40;20032;-67
2021/05/28 11:41:48;;;;;;;1.35;0.88;;;21.00;44.00;;;;;;3570870;40;20306;-67
2021/05/28 11:44:17;;;;;;;1.35;0.80;;;21.10;43.20;;;;;;3578351;40;20125;-67
2021/05/28 11:46:44;;;;;;;1.75;1.10;;;21.10;42.60;;;;;;3576284;40;20343;-67
2021/05/28 11:49:10;;;;;;;0.80;0.80;;;21.10;42.00;;;;;;3578097;40;20028;-67
2021/05/28 11:51:36;;;;;;;1.00;0.90;;;21.10;43.10;;;;;;3578436;40;20032;-68
2021/05/28 11:54:22;;;;;;;1.90;1.10;;;21.00;43.30;;;;;;3581231;40;20045;-67
2021/05/28 11:56:56;;;;;;;1.88;1.33;;;20.90;44.10;;;;;;3574760;40;20040;-67
2021/05/28 11:59:45;;;;;;;2.30;1.45;;;20.90;43.80;;;;;;3573842;40;20033;-68
2021/05/28 12:02:11;;;;;;;1.35;1.10;;;20.80;41.50;;;;;;3569658;40;20026;-67
2021/05/28 12:04:37;;;;;;;1.05;0.93;;;20.70;44.20;;;;;;3572226;40;20017;-68
2021/05/28 12:07:08;;;;;;;1.58;0.98;;;20.70;42.00;;;;;;3576139;40;20561;-68
2021/05/28 12:09:34;;;;;;;2.53;1.00;;;20.60;42.30;;;;;;3572172;40;20049;-67
2021/05/28 12:12:01;;;;;;;2.05;1.00;;;20.60;42.60;;;;;;3573796;40;20084;-68
2021/05/28 12:14:28;;;;;;;2.88;1.00;;;20.60;43.40;;;;;;3573229;40;20021;-67
2021/05/28 12:16:54;;;;;;;1.90;0.88;;;20.70;42.10;;;;;;3573252;40;20027;-68
2021/05/28 12:19:20;;;;;;;2.58;1.20;;;20.70;42.60;;;;;;3574962;40;20036;-68
2021/05/28 12:21:46;;;;;;;1.45;0.98;;;20.60;43.60;;;;;;3574857;39;20025;-68
2021/05/28 12:24:15;;;;;;;1.20;1.10;;;20.60;44.40;;;;;;3573296;40;20044;-68
2021/05/28 12:26:41;;;;;;;2.50;1.40;;;20.70;45.30;;;;;;3574968;40;20032;-68
2021/05/28 12:29:08;;;;;;;1.10;0.82;;;20.60;43.60;;;;;;3573565;40;20434;-68
2021/05/28 12:31:36;;;;;;;1.13;1.05;;;20.60;45.00;;;;;;3572085;40;20032;-68
2021/05/28 12:34:08;;;;;;;1.80;1.33;;;20.80;43.80;;;;;;3571672;40;20327;-68
2021/05/28 12:36:44;;;;;;;2.38;1.52;;;20.90;42.20;;;;;;3575732;40;20273;-68
2021/05/28 12:39:16;;;;;;;4.75;2.22;;;21.00;42.90;;;;;;3576953;40;20502;-68
2021/05/28 12:41:44;;;;;;;2.35;1.70;;;21.10;44.30;;;;;;3575040;40;20065;-68
2021/05/28 12:44:18;;;;;;;2.10;1.00;;;21.30;42.50;;;;;;3573982;40;20467;-68
2021/05/28 12:46:53;;;;;;;2.55;1.20;;;21.30;41.80;;;;;;3571715;40;20116;-68
2021/05/28 12:49:19;;;;;;;3.00;1.05;;;21.30;41.60;;;;;;3571421;40;20037;-68
2021/05/28 12:51:48;;;;;;;1.00;0.88;;;21.40;41.40;;;;;;3574661;40;20036;-68
2021/05/28 12:54:22;;;;;;;4.47;1.00;;;21.30;41.70;;;;;;3574239;40;20777;-69